Time;durP1;ratioP1;P1;durP2;ratioP2;P2;SDS_P1;SDS_P2;PMS_P1;PMS_P2;Temp;Humidity;BMP_temperature;BMP_pressure;BME280_temperature;BME280_humidity;BME280_pressure;Samples;Min_cycle;Max_cycle;Signal;HPM_P1;HPM_P2
2021/12/19 00:00:54;;;;;;;9.93;6.32;;;7.60;99.90;;;;;;5090189;28;20050;-83
2021/12/19 00:03:51;;;;;;;12.00;6.38;;;7.60;99.90;;;;;;5094093;28;20471;-83
2021/12/19 00:09:01;;;;;;;9.07;5.25;;;7.60;99.90;;;;;;5094051;28;20472;-83
2021/12/19 00:11:29;;;;;;;8.80;5.10;;;7.60;99.90;;;;;;5077083;28;20083;-83
2021/12/19 00:13:55;;;;;;;12.73;5.00;;;7.60;99.90;;;;;;5076525;28;20129;-84
2021/12/19 00:16:20;;;;;;;11.10;5.60;;;7.90;99.90;;;;;;5076620;28;20090;-84
2021/12/19 00:18:47;;;;;;;11.48;5.97;;;7.60;99.90;;;;;;5093259;28;20048;-84
2021/12/19 00:21:15;;;;;;;11.30;6.28;;;7.60;99.90;;;;;;5076808;28;20492;-84
2021/12/19 00:23:41;;;;;;;11.02;6.70;;;7.60;99.90;;;;;;5093285;28;20075;-83
2021/12/19 00:26:07;;;;;;;10.25;6.50;;;7.60;99.90;;;;;;5093756;28;20052;-84
2021/12/19 00:28:33;;;;;;;16.85;6.95;;;7.60;99.90;;;;;;5093718;28;20140;-83
2021/12/19 00:30:59;;;;;;;14.90;7.47;;;7.80;99.90;;;;;;5076254;28;20134;-84
2021/12/19 00:33:25;;;;;;;11.88;7.68;;;7.60;99.90;;;;;;5093379;28;20048;-84
2021/12/19 00:35:50;;;;;;;16.40;8.15;;;7.60;99.90;;;;;;5092881;28;20476;-84
2021/12/19 00:38:16;;;;;;;15.68;8.80;;;7.70;99.90;;;;;;5093377;28;20051;-84
2021/12/19 00:40:43;;;;;;;15.90;7.82;;;7.70;99.90;;;;;;5092967;28;20395;-83
2021/12/19 00:43:12;;;;;;;21.13;9.77;;;7.60;99.90;;;;;;5093197;28;20127;-84
2021/12/19 00:45:40;;;;;;;21.98;9.98;;;7.60;99.90;;;;;;5076450;28;20143;-84
2021/12/19 00:48:07;;;;;;;19.02;10.35;;;7.70;99.90;;;;;;5093556;28;20109;-84
2021/12/19 00:50:33;;;;;;;24.73;11.10;;;7.60;99.90;;;;;;5093448;28;20040;-84
2021/12/19 00:52:59;;;;;;;29.23;11.98;;;7.60;99.90;;;;;;5059066;28;20518;-84
2021/12/19 00:55:27;;;;;;;18.63;10.40;;;7.60;99.90;;;;;;5092974;28;20043;-84
2021/12/19 00:57:53;;;;;;;23.13;10.70;;;7.60;99.90;;;;;;5076159;28;20067;-84
2021/12/19 01:00:20;;;;;;;23.58;10.80;;;8.10;99.90;;;;;;5076442;28;20084;-84
2021/12/19 01:02:46;;;;;;;23.90;10.68;;;7.60;99.90;;;;;;5092760;28;20052;-83
2021/12/19 01:05:12;;;;;;;17.38;9.88;;;7.70;99.90;;;;;;5093103;28;20066;-83
2021/12/19 01:07:38;;;;;;;18.85;9.57;;;7.80;99.90;;;;;;5093046;28;20131;-83
2021/12/19 01:10:04;;;;;;;19.00;9.98;;;7.70;99.90;;;;;;5075406;28;20051;-83
2021/12/19 01:12:31;;;;;;;12.68;6.95;;;7.70;99.90;;;;;;5075181;28;20040;-83
2021/12/19 01:14:57;;;;;;;11.10;6.38;;;7.70;99.90;;;;;;5092092;28;20365;-83
2021/12/19 01:17:23;;;;;;;13.55;4.80;;;7.70;99.90;;;;;;5059033;28;20059;-84
2021/12/19 01:19:48;;;;;;;5.57;3.15;;;7.70;99.90;;;;;;5092154;28;20066;-84
2021/12/19 01:22:14;;;;;;;6.28;3.22;;;7.70;99.90;;;;;;5075677;28;20546;-84
2021/12/19 01:24:40;;;;;;;5.30;2.92;;;7.70;99.90;;;;;;5091952;28;20063;-84
2021/12/19 01:27:06;;;;;;;4.63;3.20;;;7.70;99.90;;;;;;5092180;28;20508;-84
2021/12/19 01:29:32;;;;;;;4.82;3.15;;;7.70;99.90;;;;;;5075612;28;20127;-83
2021/12/19 01:31:58;;;;;;;6.10;3.38;;;7.80;99.90;;;;;;5091982;28;20460;-82
2021/12/19 01:34:23;;;;;;;4.82;3.10;;;7.60;99.90;;;;;;5092351;28;20138;-84
2021/12/19 01:36:49;;;;;;;6.15;3.40;;;7.60;99.90;;;;;;5091784;28;20069;-83
2021/12/19 01:39:15;;;;;;;4.72;2.65;;;7.70;99.90;;;;;;5092246;28;20043;-83
2021/12/19 01:41:48;;;;;;;4.07;2.28;;;7.60;99.90;;;;;;5092118;28;20048;-83
2021/12/19 01:44:14;;;;;;;2.92;1.92;;;7.60;99.90;;;;;;5091908;28;20109;-83
2021/12/19 01:46:40;;;;;;;3.92;2.20;;;7.60;99.90;;;;;;5092059;28;20048;-83
2021/12/19 01:49:06;;;;;;;3.28;1.70;;;7.50;99.90;;;;;;5091490;28;20058;-84
2021/12/19 01:51:32;;;;;;;4.13;1.80;;;7.60;99.90;;;;;;5075205;28;20048;-83
2021/12/19 01:53:58;;;;;;;3.45;1.70;;;7.50;99.90;;;;;;5074697;28;20127;-84
2021/12/19 01:56:23;;;;;;;2.80;1.70;;;7.50;99.90;;;;;;5091809;28;20144;-84
2021/12/19 01:58:49;;;;;;;3.63;2.13;;;7.40;99.90;;;;;;5091348;28;20098;-84
2021/12/19 02:01:15;;;;;;;4.03;1.40;;;7.40;99.90;;;;;;5091511;28;20058;-84
2021/12/19 02:03:40;;;;;;;3.35;1.35;;;7.40;99.90;;;;;;5092605;28;20059;-84
2021/12/19 02:06:06;;;;;;;2.15;1.15;;;7.40;99.90;;;;;;5091094;28;20093;-84
2021/12/19 02:08:32;;;;;;;3.22;1.50;;;7.30;99.90;;;;;;5091741;28;20044;-83
2021/12/19 02:10:58;;;;;;;2.55;1.25;;;7.30;99.90;;;;;;5074491;28;20051;-82
2021/12/19 02:13:23;;;;;;;2.13;1.10;;;7.30;99.90;;;;;;5091136;28;20400;-83
2021/12/19 02:15:49;;;;;;;2.47;1.00;;;7.30;99.90;;;;;;5057950;28;20052;-84
2021/12/19 02:18:17;;;;;;;2.83;1.10;;;7.40;99.90;;;;;;5091135;28;20047;-82
2021/12/19 02:20:51;;;;;;;1.40;1.02;;;7.40;99.90;;;;;;5091732;28;20499;-84
2021/12/19 02:23:18;;;;;;;3.33;1.05;;;7.30;99.90;;;;;;5075518;28;20432;-83
2021/12/19 02:25:44;;;;;;;1.85;1.27;;;7.80;99.90;;;;;;5090016;28;20048;-83
2021/12/19 02:28:10;;;;;;;3.13;1.20;;;7.40;99.90;;;;;;5074090;28;20400;-84
2021/12/19 02:30:35;;;;;;;2.28;1.60;;;7.30;99.90;;;;;;5091305;28;20051;-83
2021/12/19 02:33:01;;;;;;;3.35;1.77;;;7.30;99.90;;;;;;5090993;28;20043;-84
2021/12/19 02:35:31;;;;;;;5.65;2.83;;;8.00;99.90;;;;;;5091298;28;20486;-83
2021/12/19 02:39:19;;;;;;;6.13;1.77;;;7.60;99.90;;;;;;5074340;28;20056;-84
2021/12/19 02:49:23;;;;;;;3.17;1.92;;;7.40;99.90;;;;;;5090714;28;20380;-83
2021/12/19 02:51:50;;;;;;;2.10;1.40;;;7.40;99.90;;;;;;5074151;28;20052;-84
2021/12/19 02:54:15;;;;;;;4.22;1.45;;;7.60;99.90;;;;;;5090488;28;20308;-83
2021/12/19 02:56:41;;;;;;;1.77;1.20;;;7.40;99.90;;;;;;5073688;28;20094;-82
2021/12/19 02:59:06;;;;;;;2.63;1.27;;;7.70;99.90;;;;;;5090264;28;20061;-83
2021/12/19 03:01:32;;;;;;;2.08;1.27;;;7.40;99.90;;;;;;5090350;28;20484;-82
2021/12/19 03:03:58;;;;;;;3.17;1.83;;;7.40;99.90;;;;;;5090380;28;20126;-83
2021/12/19 03:06:23;;;;;;;2.75;1.30;;;7.30;99.90;;;;;;5090885;28;20423;-83
2021/12/19 03:08:51;;;;;;;2.20;1.63;;;7.40;99.90;;;;;;5073822;28;20426;-83
2021/12/19 03:19:07;;;;;;;3.03;1.92;;;7.30;99.90;;;;;;5090068;28;20396;-83
2021/12/19 03:21:33;;;;;;;6.10;2.50;;;7.30;99.90;;;;;;5090404;28;20051;-83
2021/12/19 03:23:58;;;;;;;4.40;1.92;;;7.30;99.90;;;;;;5089876;28;20056;-83
2021/12/19 03:26:24;;;;;;;4.45;1.90;;;7.30;99.90;;;;;;5090052;28;20056;-83
2021/12/19 03:28:50;;;;;;;6.35;2.28;;;7.30;99.90;;;;;;5090386;28;20048;-83
2021/12/19 03:31:15;;;;;;;5.97;2.40;;;7.20;99.90;;;;;;5089954;28;20103;-83
2021/12/19 03:33:41;;;;;;;7.65;3.00;;;7.60;99.90;;;;;;5091385;28;20059;-83
2021/12/19 03:36:07;;;;;;;4.18;2.10;;;7.20;99.90;;;;;;5072529;28;20050;-83
2021/12/19 03:38:38;;;;;;;5.60;1.90;;;7.20;99.90;;;;;;5090064;28;20131;-82
2021/12/19 03:41:18;;;;;;;4.70;2.20;;;7.50;99.90;;;;;;5089648;28;20491;-83
2021/12/19 03:43:44;;;;;;;2.92;1.70;;;7.20;99.90;;;;;;5075410;28;20056;-84
2021/12/19 03:46:10;;;;;;;3.60;1.60;;;7.10;99.90;;;;;;5089675;28;20102;-84
2021/12/19 03:48:35;;;;;;;4.38;1.42;;;7.00;99.90;;;;;;5090225;28;20098;-83
2021/12/19 03:51:01;;;;;;;4.53;1.20;;;7.10;99.90;;;;;;5090001;28;20048;-83
2021/12/19 03:53:27;;;;;;;2.17;1.40;;;7.00;99.90;;;;;;5089573;28;20063;-83
2021/12/19 03:55:52;;;;;;;4.15;1.27;;;6.90;99.90;;;;;;5090112;28;20103;-83
2021/12/19 03:58:19;;;;;;;4.22;1.30;;;6.90;99.90;;;;;;5089759;28;20036;-84
2021/12/19 04:00:45;;;;;;;6.28;1.50;;;7.20;99.90;;;;;;5090115;28;20110;-84
2021/12/19 04:03:16;;;;;;;2.05;1.00;;;6.80;99.90;;;;;;5089514;28;20052;-84
2021/12/19 04:05:42;;;;;;;1.52;0.90;;;6.90;99.90;;;;;;5089855;28;20052;-84
2021/12/19 04:08:08;;;;;;;2.50;1.13;;;6.90;99.90;;;;;;5089371;28;20055;-84
2021/12/19 04:10:34;;;;;;;2.15;1.30;;;7.30;99.90;;;;;;5089923;28;20129;-83
2021/12/19 04:13:00;;;;;;;1.80;1.15;;;6.90;99.90;;;;;;5089939;28;20056;-83
2021/12/19 04:15:26;;;;;;;4.10;1.70;;;7.10;99.90;;;;;;5106472;28;20567;-83
2021/12/19 04:17:51;;;;;;;4.35;1.50;;;6.90;99.90;;;;;;5089815;28;20079;-84
2021/12/19 04:20:18;;;;;;;4.70;1.80;;;6.90;99.90;;;;;;5072549;28;20043;-83
2021/12/19 04:22:45;;;;;;;2.78;1.40;;;6.90;99.90;;;;;;5089988;28;20044;-84
2021/12/19 04:25:10;;;;;;;5.50;1.73;;;6.90;99.90;;;;;;5072121;28;20060;-84
2021/12/19 04:27:36;;;;;;;3.97;1.65;;;7.20;99.90;;;;;;5072962;28;20051;-84
2021/12/19 04:30:04;;;;;;;3.85;1.70;;;6.90;99.90;;;;;;5089735;28;20044;-83
2021/12/19 04:32:34;;;;;;;5.88;1.70;;;6.90;99.90;;;;;;5055768;28;20109;-83
2021/12/19 04:35:00;;;;;;;5.38;2.08;;;6.90;99.90;;;;;;5073666;28;20056;-83
2021/12/19 04:40:15;;;;;;;5.05;1.95;;;7.10;99.90;;;;;;5089585;28;20052;-83
2021/12/19 05:06:14;;;;;;;12.90;5.28;;;7.00;99.90;;;;;;5092456;28;20472;-83
2021/12/19 05:14:21;;;;;;;15.95;6.97;;;7.10;99.90;;;;;;5093977;28;20048;-83
2021/12/19 05:16:48;;;;;;;21.15;7.00;;;7.00;99.90;;;;;;5092570;28;20052;-82
2021/12/19 05:19:24;;;;;;;24.42;8.30;;;7.20;99.90;;;;;;5093195;28;20052;-82
2021/12/19 05:21:52;;;;;;;19.08;7.38;;;7.10;99.90;;;;;;5093987;28;20534;-83
2021/12/19 05:26:47;;;;;;;22.88;7.07;;;7.90;99.90;;;;;;5092384;28;20067;-83
2021/12/19 05:29:14;;;;;;;17.40;6.70;;;8.00;99.90;;;;;;5075488;28;20119;-83
2021/12/19 05:31:40;;;;;;;21.83;7.20;;;7.20;99.90;;;;;;5092125;28;20060;-83
2021/12/19 05:34:05;;;;;;;19.75;6.85;;;7.20;99.90;;;;;;5075487;28;20086;-83
2021/12/19 05:47:25;;;;;;;23.88;8.07;;;7.20;99.90;;;;;;5091689;28;20056;-83
2021/12/19 05:49:50;;;;;;;23.90;7.28;;;7.60;99.90;;;;;;5091870;28;20062;-84
2021/12/19 05:52:16;;;;;;;23.67;8.25;;;7.10;99.90;;;;;;5091978;28;20139;-83
2021/12/19 05:54:42;;;;;;;25.45;8.50;;;7.30;99.90;;;;;;5091606;28;20060;-83
2021/12/19 05:57:09;;;;;;;25.10;8.32;;;7.20;99.90;;;;;;5091994;28;20044;-84
2021/12/19 05:59:35;;;;;;;28.85;9.45;;;7.20;99.90;;;;;;5091463;28;20399;-84
2021/12/19 06:02:01;;;;;;;29.30;8.43;;;7.20;99.90;;;;;;5091902;28;20113;-83
2021/12/19 06:04:26;;;;;;;27.75;9.75;;;7.10;99.90;;;;;;5091237;28;20388;-84
2021/12/19 06:06:52;;;;;;;23.65;8.73;;;7.20;99.90;;;;;;5075027;28;20052;-83
2021/12/19 06:09:17;;;;;;;30.73;9.93;;;7.20;99.90;;;;;;5091642;28;20051;-83
2021/12/19 06:11:43;;;;;;;28.85;9.50;;;7.20;99.90;;;;;;5090683;28;20047;-83
2021/12/19 06:14:09;;;;;;;26.55;9.95;;;7.20;99.90;;;;;;5074549;28;20155;-83
2021/12/19 06:16:34;;;;;;;24.30;9.07;;;7.10;99.90;;;;;;5107818;28;20094;-83
2021/12/19 06:19:00;;;;;;;25.63;8.88;;;7.10;99.90;;;;;;5090972;28;20040;-84
2021/12/19 06:21:26;;;;;;;27.17;7.75;;;7.20;99.90;;;;;;5073674;28;20144;-83
2021/12/19 06:23:51;;;;;;;19.20;7.40;;;7.20;99.90;;;;;;5073846;28;20147;-83
2021/12/19 06:26:17;;;;;;;25.17;7.10;;;7.20;99.90;;;;;;5091179;28;20052;-84
2021/12/19 06:28:43;;;;;;;24.17;6.75;;;7.20;99.90;;;;;;5090182;28;20040;-84
2021/12/19 06:31:09;;;;;;;20.15;8.30;;;7.20;99.90;;;;;;5090983;28;20056;-84
2021/12/19 06:33:34;;;;;;;20.13;9.20;;;7.30;99.90;;;;;;5107309;28;20044;-84
2021/12/19 06:36:00;;;;;;;23.75;9.20;;;7.20;99.90;;;;;;5090819;28;20056;-84
2021/12/19 06:38:26;;;;;;;24.40;8.55;;;7.30;99.90;;;;;;5090164;28;20048;-83
2021/12/19 06:40:51;;;;;;;21.35;8.35;;;7.30;99.90;;;;;;5090767;28;20208;-84
2021/12/19 06:43:17;;;;;;;17.70;7.25;;;7.30;99.90;;;;;;5090657;28;20052;-83
2021/12/19 06:45:43;;;;;;;20.88;7.47;;;7.20;99.90;;;;;;5089858;28;20044;-84
2021/12/19 06:48:08;;;;;;;21.73;8.07;;;7.30;99.90;;;;;;5073677;28;20052;-85
2021/12/19 06:50:34;;;;;;;22.13;7.78;;;7.40;99.90;;;;;;5090073;28;20083;-83
2021/12/19 06:53:00;;;;;;;22.80;8.43;;;7.30;99.90;;;;;;5091521;28;20075;-84
2021/12/19 06:55:26;;;;;;;25.05;8.25;;;7.30;99.90;;;;;;5090307;28;20048;-83
2021/12/19 06:57:51;;;;;;;22.95;8.00;;;7.20;99.90;;;;;;5090233;28;20044;-83
2021/12/19 07:00:19;;;;;;;23.38;8.57;;;7.20;99.90;;;;;;5090435;28;20052;-83
2021/12/19 07:02:45;;;;;;;26.15;7.90;;;7.30;99.90;;;;;;5089777;28;20055;-84
2021/12/19 07:05:11;;;;;;;23.88;8.52;;;7.20;99.90;;;;;;5090089;28;20051;-84
2021/12/19 07:07:36;;;;;;;27.92;8.65;;;7.20;99.90;;;;;;5094325;28;20073;-83
2021/12/19 07:10:02;;;;;;;27.25;8.38;;;7.20;99.90;;;;;;5121486;27;20039;-84
2021/12/19 07:12:28;;;;;;;31.92;9.02;;;7.20;99.90;;;;;;5093141;28;20052;-84
2021/12/19 07:14:54;;;;;;;37.17;10.10;;;7.20;99.90;;;;;;5093398;28;20058;-84
2021/12/19 07:17:20;;;;;;;23.20;7.43;;;7.30;99.90;;;;;;5076540;28;20054;-83
2021/12/19 07:19:46;;;;;;;25.10;7.07;;;7.20;99.90;;;;;;5093207;28;20047;-83
2021/12/19 07:22:11;;;;;;;18.90;6.18;;;7.40;99.90;;;;;;5093555;28;20051;-83
2021/12/19 07:24:37;;;;;;;13.95;5.60;;;7.30;99.90;;;;;;5109044;28;20134;-83
2021/12/19 07:27:03;;;;;;;22.80;6.30;;;7.20;99.90;;;;;;5127540;27;20488;-83
2021/12/19 07:29:30;;;;;;;27.42;6.68;;;7.20;99.90;;;;;;5110205;28;20051;-83
2021/12/19 07:31:56;;;;;;;18.40;5.93;;;7.20;99.90;;;;;;5109685;28;20051;-83
2021/12/19 07:34:28;;;;;;;20.92;7.10;;;7.20;99.90;;;;;;5093186;28;20526;-82
2021/12/19 07:36:54;;;;;;;17.50;6.65;;;7.20;99.90;;;;;;5109761;28;20048;-83
2021/12/19 07:39:58;;;;;;;28.63;8.02;;;7.20;99.90;;;;;;5127344;28;20044;-83
2021/12/19 07:42:12;;;;;;;21.90;8.10;;;7.20;99.90;;;;;;5107954;28;20044;-83
2021/12/19 07:44:38;;;;;;;24.10;7.55;;;7.20;99.90;;;;;;5092564;28;20062;-83
2021/12/19 07:47:06;;;;;;;25.17;9.18;;;7.20;99.90;;;;;;5110289;28;20122;-83
2021/12/19 07:49:32;;;;;;;24.00;8.82;;;7.20;99.90;;;;;;5093364;28;20086;-83
2021/12/19 07:51:57;;;;;;;22.17;7.68;;;7.20;99.90;;;;;;5111129;28;20047;-83
2021/12/19 07:54:23;;;;;;;21.40;6.90;;;7.20;99.90;;;;;;5127239;28;20048;-83
2021/12/19 07:56:49;;;;;;;16.52;6.15;;;7.20;99.90;;;;;;5092214;28;20151;-83
2021/12/19 07:59:14;;;;;;;23.33;6.05;;;7.20;99.90;;;;;;5109737;28;20055;-83
2021/12/19 08:01:40;;;;;;;20.15;5.50;;;7.20;99.90;;;;;;5092448;28;20054;-83
2021/12/19 08:04:06;;;;;;;20.80;5.63;;;7.20;99.90;;;;;;5076172;28;20089;-83
2021/12/19 08:06:31;;;;;;;23.17;6.90;;;7.20;99.90;;;;;;5092891;28;20130;-83
2021/12/19 08:09:07;;;;;;;15.52;5.30;;;7.20;99.90;;;;;;5109261;28;20055;-82
2021/12/19 08:11:42;;;;;;;27.63;6.25;;;7.20;99.90;;;;;;5093104;28;20051;-83
2021/12/19 08:14:14;;;;;;;20.67;5.10;;;7.20;99.90;;;;;;5094409;28;20140;-84
2021/12/19 08:16:41;;;;;;;16.73;4.72;;;7.20;99.90;;;;;;5092846;28;20077;-83
2021/12/19 08:19:07;;;;;;;24.27;5.47;;;7.20;99.90;;;;;;5126964;28;20055;-83
2021/12/19 08:21:33;;;;;;;22.10;5.18;;;7.20;99.90;;;;;;5109766;28;20052;-82
2021/12/19 08:24:01;;;;;;;18.02;4.47;;;7.30;99.90;;;;;;5128667;27;20130;-81
2021/12/19 08:26:30;;;;;;;17.25;4.40;;;7.20;99.90;;;;;;5097394;28;20062;-81
2021/12/19 08:28:55;;;;;;;20.75;5.65;;;7.30;99.90;;;;;;5079378;28;20098;-81
2021/12/19 08:31:21;;;;;;;23.60;4.72;;;7.30;99.90;;;;;;5091598;28;20531;-82
2021/12/19 08:33:47;;;;;;;17.23;5.18;;;7.30;99.90;;;;;;5113996;28;20054;-83
2021/12/19 08:36:13;;;;;;;16.30;4.97;;;7.20;99.90;;;;;;5108427;28;20043;-84
2021/12/19 08:38:39;;;;;;;19.30;5.10;;;7.30;99.90;;;;;;5096179;28;20052;-83
2021/12/19 08:41:05;;;;;;;17.55;4.93;;;7.30;99.90;;;;;;5113202;28;20055;-84
2021/12/19 08:43:30;;;;;;;19.60;4.68;;;7.30;99.90;;;;;;5113208;28;20051;-83
2021/12/19 08:45:56;;;;;;;24.73;6.35;;;7.30;99.90;;;;;;5113693;28;20043;-83
2021/12/19 08:48:22;;;;;;;16.67;5.25;;;7.40;99.90;;;;;;5113207;28;20047;-83
2021/12/19 08:50:48;;;;;;;17.10;5.20;;;7.30;99.90;;;;;;5129572;27;20051;-84
2021/12/19 08:53:14;;;;;;;13.43;4.70;;;7.40;99.90;;;;;;5112862;28;20116;-84
2021/12/19 08:55:39;;;;;;;24.15;5.38;;;7.40;99.90;;;;;;5095985;28;20059;-84
2021/12/19 08:58:05;;;;;;;23.67;5.05;;;7.40;99.90;;;;;;5114005;28;20050;-83
2021/12/19 09:00:31;;;;;;;19.35;4.97;;;7.40;99.90;;;;;;5113825;28;20048;-84
2021/12/19 09:02:56;;;;;;;22.80;5.60;;;7.40;99.90;;;;;;5112802;28;20079;-84
2021/12/19 09:05:26;;;;;;;19.55;5.60;;;7.30;99.90;;;;;;5113900;28;20062;-84
2021/12/19 09:07:52;;;;;;;20.35;5.50;;;7.40;99.90;;;;;;5112133;28;20056;-82
2021/12/19 09:10:18;;;;;;;20.73;5.03;;;7.40;99.90;;;;;;5112597;28;20058;-83
2021/12/19 09:12:43;;;;;;;19.55;5.47;;;7.40;99.90;;;;;;5111910;28;20051;-85
2021/12/19 09:15:09;;;;;;;20.77;5.32;;;7.40;99.90;;;;;;5127918;27;20094;-83
2021/12/19 09:17:35;;;;;;;19.05;5.50;;;7.40;99.90;;;;;;5112829;28;20047;-85
2021/12/19 09:20:01;;;;;;;19.90;4.90;;;7.40;99.90;;;;;;5095793;28;20097;-85
2021/12/19 09:22:26;;;;;;;24.02;5.70;;;7.40;99.90;;;;;;5130277;27;20087;-84
2021/12/19 09:24:52;;;;;;;23.48;5.80;;;7.40;99.90;;;;;;5111942;28;20070;-84
2021/12/19 09:27:18;;;;;;;19.13;4.97;;;7.40;99.90;;;;;;5129937;27;20083;-84
2021/12/19 09:29:43;;;;;;;16.23;4.35;;;7.50;99.90;;;;;;5112741;28;20059;-85
2021/12/19 09:32:09;;;;;;;13.25;4.32;;;7.50;99.90;;;;;;5112686;28;20053;-85
2021/12/19 09:34:35;;;;;;;19.65;4.40;;;7.50;99.90;;;;;;5129177;27;20094;-84
2021/12/19 09:37:01;;;;;;;17.30;4.32;;;7.50;99.90;;;;;;5128482;27;20035;-83
2021/12/19 09:39:26;;;;;;;23.13;4.40;;;7.90;99.90;;;;;;5078305;28;20048;-85
2021/12/19 09:41:55;;;;;;;16.17;3.90;;;7.50;99.90;;;;;;5111494;28;20043;-84
2021/12/19 09:44:21;;;;;;;21.70;4.95;;;7.60;99.90;;;;;;5112232;28;20155;-85
2021/12/19 09:46:47;;;;;;;20.17;4.00;;;7.50;99.90;;;;;;5111589;28;20677;-83
2021/12/19 09:49:14;;;;;;;20.00;5.15;;;7.70;99.90;;;;;;5095486;28;20055;-85
2021/12/19 09:51:40;;;;;;;18.25;4.05;;;7.60;99.90;;;;;;5094968;28;20054;-85
2021/12/19 09:54:07;;;;;;;16.35;3.92;;;7.60;99.90;;;;;;5110572;28;20043;-86
2021/12/19 09:56:34;;;;;;;23.50;4.10;;;7.60;99.90;;;;;;5076567;28;20531;-84
2021/12/19 09:59:00;;;;;;;14.63;3.55;;;7.50;99.90;;;;;;5093569;28;20048;-84
2021/12/19 10:01:26;;;;;;;22.42;4.13;;;7.60;99.90;;;;;;5078271;28;20124;-84
2021/12/19 10:03:52;;;;;;;16.08;3.78;;;7.60;99.90;;;;;;5119291;28;20095;-83
2021/12/19 10:06:25;;;;;;;27.25;4.70;;;7.60;99.90;;;;;;5113735;28;20064;-83
2021/12/19 10:09:18;;;;;;;22.08;3.88;;;7.60;99.90;;;;;;5094294;28;20056;-82
2021/12/19 10:11:59;;;;;;;16.20;4.05;;;7.60;99.90;;;;;;5077514;28;20055;-83
2021/12/19 10:14:25;;;;;;;16.60;4.13;;;7.60;99.90;;;;;;5111386;28;20043;-84
2021/12/19 10:16:51;;;;;;;13.40;3.50;;;7.60;99.90;;;;;;5093856;28;20052;-82
2021/12/19 10:19:16;;;;;;;15.23;3.95;;;7.70;99.90;;;;;;5094245;28;20050;-82
2021/12/19 10:21:42;;;;;;;18.73;3.90;;;7.70;99.90;;;;;;5077298;28;20051;-83
2021/12/19 10:24:10;;;;;;;13.27;4.22;;;7.60;99.90;;;;;;5110412;28;20047;-82
2021/12/19 10:26:43;;;;;;;19.27;4.75;;;7.60;99.90;;;;;;5076845;28;20510;-83
2021/12/19 10:29:10;;;;;;;20.27;4.20;;;7.60;99.90;;;;;;5110464;28;20126;-84
2021/12/19 10:31:35;;;;;;;15.02;3.58;;;7.60;99.90;;;;;;5094118;28;20048;-84
2021/12/19 10:34:37;;;;;;;19.80;4.10;;;7.70;99.90;;;;;;5093583;28;20388;-83
2021/12/19 10:37:02;;;;;;;12.60;4.57;;;7.70;99.90;;;;;;5051967;28;20098;-84
2021/12/19 10:39:36;;;;;;;15.20;3.45;;;7.80;99.90;;;;;;5080900;28;20067;-83
2021/12/19 10:42:02;;;;;;;19.15;3.88;;;7.80;99.90;;;;;;5076773;28;20503;-83
2021/12/19 10:47:20;;;;;;;18.30;5.25;;;7.90;99.90;;;;;;5080994;28;20522;-83
2021/12/19 10:49:45;;;;;;;21.52;5.65;;;7.80;99.90;;;;;;5093948;28;20104;-82
2021/12/19 10:52:11;;;;;;;18.70;3.88;;;7.90;99.90;;;;;;5076101;28;20130;-83
2021/12/19 10:54:37;;;;;;;14.18;2.97;;;7.80;99.90;;;;;;5093560;28;20054;-83
2021/12/19 10:57:11;;;;;;;21.95;4.45;;;7.80;99.90;;;;;;5076117;28;20078;-82
2021/12/19 10:59:36;;;;;;;17.70;3.53;;;7.80;99.90;;;;;;5094280;28;20136;-83
2021/12/19 11:02:04;;;;;;;9.45;3.17;;;7.80;99.90;;;;;;5109671;28;20082;-86
2021/12/19 11:04:32;;;;;;;17.90;3.50;;;7.80;99.90;;;;;;5093383;28;20491;-85
2021/12/19 11:06:59;;;;;;;19.40;3.65;;;7.80;99.90;;;;;;5076915;28;20058;-86
2021/12/19 11:09:34;;;;;;;16.77;3.22;;;7.80;99.90;;;;;;5093792;28;20066;-84
2021/12/19 11:12:05;;;;;;;8.88;2.80;;;7.90;99.90;;;;;;5093542;28;20063;-86
2021/12/19 11:14:39;;;;;;;14.05;2.90;;;8.00;99.90;;;;;;5110529;28;20452;-85
2021/12/19 11:17:09;;;;;;;13.90;2.83;;;8.00;99.90;;;;;;5109995;28;20056;-85
2021/12/19 11:19:35;;;;;;;16.83;3.00;;;7.90;99.90;;;;;;5060839;28;20403;-85
2021/12/19 11:22:04;;;;;;;14.50;3.63;;;8.20;99.90;;;;;;5075846;28;20044;-85
2021/12/19 11:24:30;;;;;;;12.85;3.00;;;8.00;99.90;;;;;;5109606;28;20052;-84
2021/12/19 11:27:05;;;;;;;18.38;3.13;;;8.00;99.90;;;;;;5110177;28;20169;-84
2021/12/19 11:29:31;;;;;;;15.02;3.90;;;8.00;99.90;;;;;;5077297;28;20133;-82
2021/12/19 11:31:59;;;;;;;22.45;3.63;;;7.90;99.90;;;;;;5076100;28;20179;-83
2021/12/19 11:34:51;;;;;;;15.65;2.80;;;8.00;99.90;;;;;;5093412;28;20142;-83
2021/12/19 11:37:18;;;;;;;16.88;3.20;;;8.10;99.90;;;;;;5109736;28;20051;-84
2021/12/19 11:39:54;;;;;;;14.70;3.67;;;8.00;99.90;;;;;;5092780;28;20539;-87
2021/12/19 11:42:29;;;;;;;14.00;3.03;;;8.10;99.90;;;;;;5059201;28;20503;-86
2021/12/19 11:47:52;;;;;;;17.35;3.42;;;8.10;99.90;;;;;;5093265;28;20059;-85
2021/12/19 11:50:26;;;;;;;14.75;3.40;;;8.10;99.90;;;;;;5109367;28;20043;-87
2021/12/19 11:53:19;;;;;;;17.95;3.47;;;8.10;99.90;;;;;;5093466;28;20052;-86
2021/12/19 11:55:48;;;;;;;13.57;3.78;;;8.20;99.90;;;;;;5093079;28;20083;-87
2021/12/19 11:58:18;;;;;;;15.75;4.07;;;8.10;99.90;;;;;;5113370;28;20052;-84
2021/12/19 12:00:52;;;;;;;21.48;3.75;;;8.10;99.90;;;;;;5099157;28;20507;-83
2021/12/19 12:03:20;;;;;;;19.17;3.25;;;8.10;99.90;;;;;;5115569;28;20055;-84
2021/12/19 12:05:51;;;;;;;14.73;3.20;;;8.10;99.90;;;;;;5113688;28;20055;-83
2021/12/19 12:08:16;;;;;;;16.67;3.75;;;8.10;99.90;;;;;;5114477;28;20112;-83
2021/12/19 12:10:52;;;;;;;23.00;3.88;;;8.10;99.90;;;;;;5113939;28;20051;-83
2021/12/19 12:13:20;;;;;;;14.38;3.25;;;8.10;99.90;;;;;;5113150;28;20059;-83
2021/12/19 12:15:49;;;;;;;16.33;3.17;;;8.10;99.90;;;;;;5096359;28;20062;-82
2021/12/19 12:18:44;;;;;;;16.80;3.80;;;8.20;99.90;;;;;;5096544;28;20050;-82
2021/12/19 12:21:24;;;;;;;17.35;3.42;;;8.20;99.90;;;;;;5099983;28;20433;-83
2021/12/19 12:23:58;;;;;;;16.63;4.13;;;8.10;99.90;;;;;;5114680;28;20074;-83
2021/12/19 12:26:27;;;;;;;17.35;3.28;;;8.10;99.90;;;;;;5096504;28;20125;-83
2021/12/19 12:28:53;;;;;;;23.48;3.90;;;8.50;99.90;;;;;;5096873;28;20430;-83
2021/12/19 12:31:18;;;;;;;17.38;3.83;;;8.10;99.90;;;;;;5112800;28;20056;-83
2021/12/19 12:33:44;;;;;;;19.73;3.45;;;8.20;99.90;;;;;;5079394;28;20050;-83
2021/12/19 12:36:10;;;;;;;19.73;3.80;;;8.20;99.90;;;;;;5079048;28;20606;-83
2021/12/19 12:38:36;;;;;;;15.50;3.83;;;8.10;99.90;;;;;;5113454;28;20043;-81
2021/12/19 12:41:08;;;;;;;19.90;3.55;;;8.20;99.90;;;;;;5113046;28;20097;-82
2021/12/19 12:43:35;;;;;;;24.83;4.53;;;8.20;99.90;;;;;;5096995;28;20055;-83
2021/12/19 12:46:11;;;;;;;18.52;3.67;;;8.20;99.90;;;;;;5112638;28;20052;-83
2021/12/19 12:48:57;;;;;;;25.88;4.10;;;8.20;99.90;;;;;;5112988;28;20054;-83
2021/12/19 12:51:27;;;;;;;19.92;3.50;;;8.20;99.90;;;;;;5112794;28;20089;-83
2021/12/19 12:53:55;;;;;;;20.73;4.20;;;8.20;99.90;;;;;;5096494;28;20062;-82
2021/12/19 12:56:23;;;;;;;19.75;4.05;;;8.20;99.90;;;;;;5095307;28;20059;-84
2021/12/19 12:58:55;;;;;;;24.77;4.45;;;8.10;99.90;;;;;;5079253;28;20828;-86
2021/12/19 13:01:22;;;;;;;24.33;4.45;;;8.30;99.90;;;;;;5078886;28;20392;-85
2021/12/19 13:04:13;;;;;;;23.15;3.92;;;8.20;99.90;;;;;;5095816;28;20048;-86
2021/12/19 13:06:44;;;;;;;25.42;5.10;;;8.20;99.90;;;;;;5095625;28;20055;-84
2021/12/19 13:09:16;;;;;;;21.98;4.90;;;8.20;99.90;;;;;;5111198;28;20180;-85
2021/12/19 13:11:42;;;;;;;17.17;4.15;;;8.10;99.90;;;;;;5078984;28;20651;-87
2021/12/19 13:14:17;;;;;;;28.77;4.88;;;8.10;99.90;;;;;;5095261;28;20468;-85
2021/12/19 13:17:00;;;;;;;22.50;4.55;;;8.10;99.90;;;;;;5096112;28;20134;-84
2021/12/19 13:19:35;;;;;;;14.25;3.65;;;8.20;99.90;;;;;;5095717;28;20047;-86
2021/12/19 13:22:01;;;;;;;16.15;3.58;;;8.40;99.90;;;;;;5112438;28;20043;-85
2021/12/19 13:24:27;;;;;;;20.27;3.50;;;8.20;99.90;;;;;;5094352;28;20502;-85
2021/12/19 13:27:19;;;;;;;18.85;3.63;;;8.10;99.90;;;;;;5094930;28;20051;-85
2021/12/19 13:29:58;;;;;;;22.58;4.03;;;8.30;99.90;;;;;;5112326;28;20048;-86
2021/12/19 13:32:26;;;;;;;25.52;3.53;;;8.10;99.90;;;;;;5095122;28;20054;-86
2021/12/19 13:34:52;;;;;;;23.50;4.25;;;8.20;99.90;;;;;;5112044;28;20057;-84
2021/12/19 13:37:18;;;;;;;20.67;4.25;;;8.10;99.90;;;;;;5094461;28;20475;-84
2021/12/19 13:39:48;;;;;;;19.77;3.30;;;8.10;99.90;;;;;;5094867;28;20077;-86
2021/12/19 13:42:14;;;;;;;19.00;3.97;;;8.00;99.90;;;;;;5087753;28;20039;-86
2021/12/19 13:44:40;;;;;;;25.25;4.63;;;8.00;99.90;;;;;;5078036;28;20157;-85
2021/12/19 13:47:23;;;;;;;18.02;3.85;;;8.00;99.90;;;;;;5112029;28;20138;-85
2021/12/19 13:49:48;;;;;;;26.92;4.95;;;8.30;99.90;;;;;;5076375;28;20204;-86
2021/12/19 13:52:14;;;;;;;25.05;4.25;;;8.00;99.90;;;;;;5075850;28;20052;-86
2021/12/19 13:54:40;;;;;;;19.63;3.28;;;8.00;99.90;;;;;;5109426;28;20039;-86
2021/12/19 13:57:36;;;;;;;22.90;3.30;;;8.10;99.90;;;;;;5092757;28;20053;-88
2021/12/19 14:00:06;;;;;;;20.83;3.53;;;8.10;99.90;;;;;;5096663;28;20106;-87
2021/12/19 14:02:36;;;;;;;23.73;4.00;;;8.10;99.90;;;;;;5074733;28;20056;-84